sensor_id;sensor_type;location;lat;lon;timestamp;P1;durP1;ratioP1;P2;durP2;ratioP2
24585;SDS011;12743;52.262;6.172;2023-07-24T00:00:01;4.27;;;1.63;;
24585;SDS011;12743;52.262;6.172;2023-07-24T00:02:30;4.10;;;1.85;;
24585;SDS011;12743;52.262;6.172;2023-07-24T00:04:56;5.30;;;1.80;;
24585;SDS011;12743;52.262;6.172;2023-07-24T00:07:23;5.85;;;2.00;;
24585;SDS011;12743;52.262;6.172;2023-07-24T00:09:52;4.07;;;1.80;;
24585;SDS011;12743;52.262;6.172;2023-07-24T00:12:19;4.40;;;1.80;;
24585;SDS011;12743;52.262;6.172;2023-07-24T00:14:45;4.22;;;1.45;;
24585;SDS011;12743;52.262;6.172;2023-07-24T00:17:12;3.85;;;1.50;;
24585;SDS011;12743;52.262;6.172;2023-07-24T00:19:39;4.95;;;1.80;;
24585;SDS011;12743;52.262;6.172;2023-07-24T00:22:06;5.15;;;1.77;;
24585;SDS011;12743;52.262;6.172;2023-07-24T00:24:33;4.00;;;1.53;;
24585;SDS011;12743;52.262;6.172;2023-07-24T00:26:59;6.03;;;1.80;;
24585;SDS011;12743;52.262;6.172;2023-07-24T00:29:26;5.28;;;1.98;;
24585;SDS011;12743;52.262;6.172;2023-07-24T00:31:53;4.70;;;2.08;;
24585;SDS011;12743;52.262;6.172;2023-07-24T00:34:20;5.05;;;2.20;;
24585;SDS011;12743;52.262;6.172;2023-07-24T00:36:47;3.87;;;1.37;;
24585;SDS011;12743;52.262;6.172;2023-07-24T00:39:14;4.68;;;2.10;;
24585;SDS011;12743;52.262;6.172;2023-07-24T00:41:41;4.93;;;2.03;;
24585;SDS011;12743;52.262;6.172;2023-07-24T00:44:09;5.38;;;1.90;;
24585;SDS011;12743;52.262;6.172;2023-07-24T00:46:36;4.50;;;1.95;;
24585;SDS011;12743;52.262;6.172;2023-07-24T00:49:04;5.17;;;2.50;;
24585;SDS011;12743;52.262;6.172;2023-07-24T00:51:31;5.60;;;2.55;;
24585;SDS011;12743;52.262;6.172;2023-07-24T00:54:00;5.18;;;2.45;;
24585;SDS011;12743;52.262;6.172;2023-07-24T00:56:28;4.07;;;1.90;;
24585;SDS011;12743;52.262;6.172;2023-07-24T00:58:57;3.30;;;1.52;;
24585;SDS011;12743;52.262;6.172;2023-07-24T01:01:25;3.97;;;1.60;;
24585;SDS011;12743;52.262;6.172;2023-07-24T01:03:52;4.43;;;2.10;;
24585;SDS011;12743;52.262;6.172;2023-07-24T01:06:20;3.92;;;1.75;;
24585;SDS011;12743;52.262;6.172;2023-07-24T01:08:47;5.22;;;1.85;;
24585;SDS011;12743;52.262;6.172;2023-07-24T01:11:20;3.50;;;1.70;;
24585;SDS011;12743;52.262;6.172;2023-07-24T01:13:58;4.03;;;1.60;;
24585;SDS011;12743;52.262;6.172;2023-07-24T01:16:31;4.53;;;1.67;;
24585;SDS011;12743;52.262;6.172;2023-07-24T01:19:03;3.60;;;1.73;;
24585;SDS011;12743;52.262;6.172;2023-07-24T01:21:45;3.95;;;1.67;;
24585;SDS011;12743;52.262;6.172;2023-07-24T01:24:29;4.40;;;2.00;;
24585;SDS011;12743;52.262;6.172;2023-07-24T01:27:01;4.07;;;1.90;;
24585;SDS011;12743;52.262;6.172;2023-07-24T01:29:29;4.82;;;2.00;;
24585;SDS011;12743;52.262;6.172;2023-07-24T01:31:56;4.75;;;2.40;;
24585;SDS011;12743;52.262;6.172;2023-07-24T01:34:23;4.88;;;2.55;;
24585;SDS011;12743;52.262;6.172;2023-07-24T01:36:50;5.55;;;2.42;;
24585;SDS011;12743;52.262;6.172;2023-07-24T01:39:17;4.87;;;2.43;;
24585;SDS011;12743;52.262;6.172;2023-07-24T01:41:46;4.97;;;2.50;;
24585;SDS011;12743;52.262;6.172;2023-07-24T01:44:13;5.57;;;2.70;;
24585;SDS011;12743;52.262;6.172;2023-07-24T01:46:40;5.55;;;3.08;;
24585;SDS011;12743;52.262;6.172;2023-07-24T01:49:07;5.22;;;2.72;;
24585;SDS011;12743;52.262;6.172;2023-07-24T01:51:33;5.23;;;2.77;;
24585;SDS011;12743;52.262;6.172;2023-07-24T01:54:01;5.93;;;3.17;;
24585;SDS011;12743;52.262;6.172;2023-07-24T01:56:28;4.93;;;2.78;;
24585;SDS011;12743;52.262;6.172;2023-07-24T01:58:55;5.25;;;2.53;;
24585;SDS011;12743;52.262;6.172;2023-07-24T02:01:22;4.95;;;2.72;;
24585;SDS011;12743;52.262;6.172;2023-07-24T02:03:49;4.63;;;2.30;;
24585;SDS011;12743;52.262;6.172;2023-07-24T02:06:15;5.47;;;2.42;;
24585;SDS011;12743;52.262;6.172;2023-07-24T02:08:42;5.78;;;2.80;;
24585;SDS011;12743;52.262;6.172;2023-07-24T02:11:15;4.93;;;2.80;;
24585;SDS011;12743;52.262;6.172;2023-07-24T02:13:45;4.30;;;2.28;;
24585;SDS011;12743;52.262;6.172;2023-07-24T02:16:13;5.20;;;2.80;;
24585;SDS011;12743;52.262;6.172;2023-07-24T02:18:41;5.40;;;2.58;;
24585;SDS011;12743;52.262;6.172;2023-07-24T02:21:08;6.70;;;3.08;;
24585;SDS011;12743;52.262;6.172;2023-07-24T02:23:35;4.72;;;2.53;;
24585;SDS011;12743;52.262;6.172;2023-07-24T02:26:03;5.78;;;2.78;;
24585;SDS011;12743;52.262;6.172;2023-07-24T02:28:33;5.20;;;2.80;;
24585;SDS011;12743;52.262;6.172;2023-07-24T02:30:59;5.95;;;3.33;;
24585;SDS011;12743;52.262;6.172;2023-07-24T02:33:27;6.00;;;2.95;;
24585;SDS011;12743;52.262;6.172;2023-07-24T02:35:55;6.05;;;3.20;;
24585;SDS011;12743;52.262;6.172;2023-07-24T02:38:22;6.00;;;3.45;;
24585;SDS011;12743;52.262;6.172;2023-07-24T02:40:49;5.47;;;2.87;;
24585;SDS011;12743;52.262;6.172;2023-07-24T02:43:15;5.40;;;3.17;;
24585;SDS011;12743;52.262;6.172;2023-07-24T02:45:42;6.82;;;3.35;;
24585;SDS011;12743;52.262;6.172;2023-07-24T02:48:09;7.03;;;3.15;;
24585;SDS011;12743;52.262;6.172;2023-07-24T02:50:35;5.57;;;3.15;;
24585;SDS011;12743;52.262;6.172;2023-07-24T02:53:02;5.60;;;3.27;;
24585;SDS011;12743;52.262;6.172;2023-07-24T02:55:29;5.35;;;3.17;;
24585;SDS011;12743;52.262;6.172;2023-07-24T02:57:56;5.53;;;2.80;;
24585;SDS011;12743;52.262;6.172;2023-07-24T03:00:23;6.55;;;2.85;;
24585;SDS011;12743;52.262;6.172;2023-07-24T03:02:50;4.95;;;2.97;;
24585;SDS011;12743;52.262;6.172;2023-07-24T03:05:17;5.93;;;3.00;;
24585;SDS011;12743;52.262;6.172;2023-07-24T03:07:44;6.30;;;3.58;;
24585;SDS011;12743;52.262;6.172;2023-07-24T03:10:10;6.35;;;3.75;;
24585;SDS011;12743;52.262;6.172;2023-07-24T03:12:37;6.05;;;4.10;;
24585;SDS011;12743;52.262;6.172;2023-07-24T03:15:04;7.47;;;3.83;;
24585;SDS011;12743;52.262;6.172;2023-07-24T03:17:31;6.50;;;3.77;;
24585;SDS011;12743;52.262;6.172;2023-07-24T03:19:57;6.28;;;3.75;;
24585;SDS011;12743;52.262;6.172;2023-07-24T03:22:24;7.88;;;4.13;;
24585;SDS011;12743;52.262;6.172;2023-07-24T03:24:50;6.20;;;3.10;;
24585;SDS011;12743;52.262;6.172;2023-07-24T03:27:17;5.63;;;3.10;;
24585;SDS011;12743;52.262;6.172;2023-07-24T03:29:44;6.13;;;3.47;;
24585;SDS011;12743;52.262;6.172;2023-07-24T03:32:10;7.35;;;3.65;;
24585;SDS011;12743;52.262;6.172;2023-07-24T03:34:37;6.43;;;3.45;;
24585;SDS011;12743;52.262;6.172;2023-07-24T03:37:04;8.60;;;3.42;;
24585;SDS011;12743;52.262;6.172;2023-07-24T03:39:30;6.45;;;3.70;;
24585;SDS011;12743;52.262;6.172;2023-07-24T03:41:57;5.50;;;3.07;;
24585;SDS011;12743;52.262;6.172;2023-07-24T03:44:25;8.18;;;4.20;;
24585;SDS011;12743;52.262;6.172;2023-07-24T03:46:59;7.30;;;4.05;;
24585;SDS011;12743;52.262;6.172;2023-07-24T03:49:25;6.07;;;2.92;;
24585;SDS011;12743;52.262;6.172;2023-07-24T03:51:52;6.85;;;3.78;;
24585;SDS011;12743;52.262;6.172;2023-07-24T03:54:19;7.37;;;4.17;;
24585;SDS011;12743;52.262;6.172;2023-07-24T03:56:45;7.18;;;3.97;;
24585;SDS011;12743;52.262;6.172;2023-07-24T03:59:12;6.88;;;3.72;;
24585;SDS011;12743;52.262;6.172;2023-07-24T04:01:38;7.45;;;4.70;;
24585;SDS011;12743;52.262;6.172;2023-07-24T04:04:05;7.78;;;4.20;;
24585;SDS011;12743;52.262;6.172;2023-07-24T04:06:32;6.77;;;4.07;;
24585;SDS011;12743;52.262;6.172;2023-07-24T04:08:58;7.53;;;4.20;;
24585;SDS011;12743;52.262;6.172;2023-07-24T04:11:25;7.93;;;4.85;;
24585;SDS011;12743;52.262;6.172;2023-07-24T04:13:51;6.88;;;4.15;;
24585;SDS011;12743;52.262;6.172;2023-07-24T04:16:18;7.32;;;3.97;;
24585;SDS011;12743;52.262;6.172;2023-07-24T04:18:45;7.67;;;4.07;;
24585;SDS011;12743;52.262;6.172;2023-07-24T04:21:12;6.72;;;4.18;;
24585;SDS011;12743;52.262;6.172;2023-07-24T04:23:38;7.72;;;4.22;;
24585;SDS011;12743;52.262;6.172;2023-07-24T04:26:05;8.73;;;4.35;;
24585;SDS011;12743;52.262;6.172;2023-07-24T04:28:32;8.05;;;3.92;;
24585;SDS011;12743;52.262;6.172;2023-07-24T04:31:01;7.00;;;4.20;;
24585;SDS011;12743;52.262;6.172;2023-07-24T04:33:28;7.32;;;4.32;;
24585;SDS011;12743;52.262;6.172;2023-07-24T04:36:00;7.47;;;4.35;;
24585;SDS011;12743;52.262;6.172;2023-07-24T04:38:26;7.93;;;4.43;;
24585;SDS011;12743;52.262;6.172;2023-07-24T04:40:53;7.38;;;4.72;;
24585;SDS011;12743;52.262;6.172;2023-07-24T04:43:20;6.33;;;3.60;;
24585;SDS011;12743;52.262;6.172;2023-07-24T04:45:47;7.60;;;4.78;;
24585;SDS011;12743;52.262;6.172;2023-07-24T04:48:14;9.10;;;4.97;;
24585;SDS011;12743;52.262;6.172;2023-07-24T04:50:40;8.30;;;5.03;;
24585;SDS011;12743;52.262;6.172;2023-07-24T04:53:07;9.02;;;4.93;;
24585;SDS011;12743;52.262;6.172;2023-07-24T04:55:34;8.10;;;4.93;;
24585;SDS011;12743;52.262;6.172;2023-07-24T04:58:01;7.63;;;4.18;;
24585;SDS011;12743;52.262;6.172;2023-07-24T05:00:27;7.35;;;4.38;;
24585;SDS011;12743;52.262;6.172;2023-07-24T05:03:01;8.77;;;4.97;;
24585;SDS011;12743;52.262;6.172;2023-07-24T05:05:28;8.85;;;4.43;;
24585;SDS011;12743;52.262;6.172;2023-07-24T05:07:55;7.70;;;5.03;;
24585;SDS011;12743;52.262;6.172;2023-07-24T05:10:21;7.85;;;4.53;;
24585;SDS011;12743;52.262;6.172;2023-07-24T05:12:48;7.25;;;4.50;;
24585;SDS011;12743;52.262;6.172;2023-07-24T05:15:15;8.57;;;4.43;;
24585;SDS011;12743;52.262;6.172;2023-07-24T05:17:44;8.73;;;5.43;;
24585;SDS011;12743;52.262;6.172;2023-07-24T05:20:11;9.00;;;5.50;;
24585;SDS011;12743;52.262;6.172;2023-07-24T05:22:37;9.35;;;5.25;;
24585;SDS011;12743;52.262;6.172;2023-07-24T05:25:04;9.15;;;5.50;;
24585;SDS011;12743;52.262;6.172;2023-07-24T05:27:31;8.80;;;5.25;;
24585;SDS011;12743;52.262;6.172;2023-07-24T05:29:58;7.70;;;4.72;;
24585;SDS011;12743;52.262;6.172;2023-07-24T05:32:24;8.00;;;5.10;;
24585;SDS011;12743;52.262;6.172;2023-07-24T05:34:51;9.57;;;5.10;;
24585;SDS011;12743;52.262;6.172;2023-07-24T05:37:18;9.65;;;5.78;;
24585;SDS011;12743;52.262;6.172;2023-07-24T05:39:44;9.60;;;5.55;;
24585;SDS011;12743;52.262;6.172;2023-07-24T05:42:11;8.55;;;5.47;;
24585;SDS011;12743;52.262;6.172;2023-07-24T05:44:38;7.93;;;5.37;;
24585;SDS011;12743;52.262;6.172;2023-07-24T05:47:05;10.15;;;6.32;;
24585;SDS011;12743;52.262;6.172;2023-07-24T05:49:31;8.77;;;5.88;;
24585;SDS011;12743;52.262;6.172;2023-07-24T05:51:58;10.20;;;5.90;;
24585;SDS011;12743;52.262;6.172;2023-07-24T05:54:25;9.23;;;5.55;;
24585;SDS011;12743;52.262;6.172;2023-07-24T05:56:52;10.57;;;5.70;;
24585;SDS011;12743;52.262;6.172;2023-07-24T05:59:18;10.48;;;6.18;;
24585;SDS011;12743;52.262;6.172;2023-07-24T06:01:48;9.20;;;6.22;;
24585;SDS011;12743;52.262;6.172;2023-07-24T06:04:15;10.25;;;6.05;;
24585;SDS011;12743;52.262;6.172;2023-07-24T06:06:42;10.48;;;6.57;;
24585;SDS011;12743;52.262;6.172;2023-07-24T06:09:09;11.10;;;6.00;;
24585;SDS011;12743;52.262;6.172;2023-07-24T06:11:36;10.40;;;5.38;;
24585;SDS011;12743;52.262;6.172;2023-07-24T06:14:02;10.95;;;5.95;;
24585;SDS011;12743;52.262;6.172;2023-07-24T06:16:29;10.00;;;6.57;;
24585;SDS011;12743;52.262;6.172;2023-07-24T06:18:56;11.82;;;6.50;;
24585;SDS011;12743;52.262;6.172;2023-07-24T06:21:23;9.90;;;5.60;;
24585;SDS011;12743;52.262;6.172;2023-07-24T06:23:49;12.73;;;7.00;;
24585;SDS011;12743;52.262;6.172;2023-07-24T06:26:16;11.65;;;6.68;;
24585;SDS011;12743;52.262;6.172;2023-07-24T06:28:43;12.45;;;6.30;;
24585;SDS011;12743;52.262;6.172;2023-07-24T06:31:09;12.10;;;7.15;;
24585;SDS011;12743;52.262;6.172;2023-07-24T06:33:36;12.73;;;6.63;;
24585;SDS011;12743;52.262;6.172;2023-07-24T06:36:03;10.93;;;6.75;;
24585;SDS011;12743;52.262;6.172;2023-07-24T06:38:30;11.35;;;7.10;;
24585;SDS011;12743;52.262;6.172;2023-07-24T06:40:57;11.77;;;6.38;;
24585;SDS011;12743;52.262;6.172;2023-07-24T06:43:23;10.88;;;6.05;;
24585;SDS011;12743;52.262;6.172;2023-07-24T06:45:50;13.90;;;7.73;;
24585;SDS011;12743;52.262;6.172;2023-07-24T06:48:17;13.00;;;6.68;;
24585;SDS011;12743;52.262;6.172;2023-07-24T06:50:44;12.77;;;7.88;;
24585;SDS011;12743;52.262;6.172;2023-07-24T06:53:10;12.40;;;7.32;;
24585;SDS011;12743;52.262;6.172;2023-07-24T06:55:37;10.98;;;6.38;;
24585;SDS011;12743;52.262;6.172;2023-07-24T06:58:04;12.97;;;6.50;;
24585;SDS011;12743;52.262;6.172;2023-07-24T07:00:31;11.00;;;6.00;;
24585;SDS011;12743;52.262;6.172;2023-07-24T07:02:57;11.07;;;5.45;;
24585;SDS011;12743;52.262;6.172;2023-07-24T07:05:24;9.85;;;5.10;;
24585;SDS011;12743;52.262;6.172;2023-07-24T07:07:51;11.10;;;5.88;;
24585;SDS011;12743;52.262;6.172;2023-07-24T07:10:17;10.93;;;4.30;;
24585;SDS011;12743;52.262;6.172;2023-07-24T07:12:44;9.18;;;5.50;;
24585;SDS011;12743;52.262;6.172;2023-07-24T07:15:10;10.82;;;5.43;;
24585;SDS011;12743;52.262;6.172;2023-07-24T07:17:37;10.45;;;5.18;;
24585;SDS011;12743;52.262;6.172;2023-07-24T07:20:04;10.40;;;4.70;;
24585;SDS011;12743;52.262;6.172;2023-07-24T07:22:32;12.07;;;4.93;;
24585;SDS011;12743;52.262;6.172;2023-07-24T07:24:58;10.18;;;4.47;;
24585;SDS011;12743;52.262;6.172;2023-07-24T07:27:25;8.57;;;4.10;;
24585;SDS011;12743;52.262;6.172;2023-07-24T07:29:51;8.30;;;3.97;;
24585;SDS011;12743;52.262;6.172;2023-07-24T07:32:18;9.13;;;4.03;;
24585;SDS011;12743;52.262;6.172;2023-07-24T07:34:45;9.90;;;4.80;;
24585;SDS011;12743;52.262;6.172;2023-07-24T07:37:11;10.02;;;5.00;;
24585;SDS011;12743;52.262;6.172;2023-07-24T07:39:38;9.10;;;4.57;;
24585;SDS011;12743;52.262;6.172;2023-07-24T07:42:04;11.45;;;4.93;;
24585;SDS011;12743;52.262;6.172;2023-07-24T07:44:42;7.63;;;3.90;;
24585;SDS011;12743;52.262;6.172;2023-07-24T07:47:09;8.97;;;4.27;;
24585;SDS011;12743;52.262;6.172;2023-07-24T07:49:35;9.95;;;4.57;;
24585;SDS011;12743;52.262;6.172;2023-07-24T07:52:02;9.20;;;4.43;;
24585;SDS011;12743;52.262;6.172;2023-07-24T07:54:29;8.50;;;4.00;;
24585;SDS011;12743;52.262;6.172;2023-07-24T07:56:57;11.00;;;4.57;;
24585;SDS011;12743;52.262;6.172;2023-07-24T07:59:23;8.53;;;4.07;;
24585;SDS011;12743;52.262;6.172;2023-07-24T08:01:50;9.52;;;4.35;;
24585;SDS011;12743;52.262;6.172;2023-07-24T08:04:17;9.25;;;4.88;;
24585;SDS011;12743;52.262;6.172;2023-07-24T08:06:44;10.52;;;4.00;;
24585;SDS011;12743;52.262;6.172;2023-07-24T08:09:11;8.73;;;4.20;;
24585;SDS011;12743;52.262;6.172;2023-07-24T08:11:38;9.20;;;4.07;;
24585;SDS011;12743;52.262;6.172;2023-07-24T08:14:05;8.98;;;3.92;;
24585;SDS011;12743;52.262;6.172;2023-07-24T08:16:31;9.52;;;4.22;;
24585;SDS011;12743;52.262;6.172;2023-07-24T08:18:59;8.88;;;3.88;;
24585;SDS011;12743;52.262;6.172;2023-07-24T08:21:26;8.32;;;3.53;;
24585;SDS011;12743;52.262;6.172;2023-07-24T08:23:52;8.27;;;4.37;;
24585;SDS011;12743;52.262;6.172;2023-07-24T08:26:19;9.13;;;4.32;;
24585;SDS011;12743;52.262;6.172;2023-07-24T08:28:46;11.55;;;4.25;;
24585;SDS011;12743;52.262;6.172;2023-07-24T08:31:12;7.53;;;3.85;;
24585;SDS011;12743;52.262;6.172;2023-07-24T08:33:39;8.13;;;4.00;;
24585;SDS011;12743;52.262;6.172;2023-07-24T08:36:06;8.67;;;4.37;;
24585;SDS011;12743;52.262;6.172;2023-07-24T08:38:34;9.48;;;4.22;;
24585;SDS011;12743;52.262;6.172;2023-07-24T08:41:02;9.95;;;4.47;;
24585;SDS011;12743;52.262;6.172;2023-07-24T08:43:34;7.65;;;4.18;;
24585;SDS011;12743;52.262;6.172;2023-07-24T08:46:02;9.05;;;4.15;;
24585;SDS011;12743;52.262;6.172;2023-07-24T08:48:30;7.00;;;3.90;;
24585;SDS011;12743;52.262;6.172;2023-07-24T08:51:08;7.47;;;4.13;;
24585;SDS011;12743;52.262;6.172;2023-07-24T08:53:38;8.60;;;4.07;;
24585;SDS011;12743;52.262;6.172;2023-07-24T08:56:06;9.10;;;4.35;;
24585;SDS011;12743;52.262;6.172;2023-07-24T08:58:37;7.90;;;3.60;;
24585;SDS011;12743;52.262;6.172;2023-07-24T09:01:05;9.13;;;4.40;;
24585;SDS011;12743;52.262;6.172;2023-07-24T09:03:33;7.93;;;4.00;;
24585;SDS011;12743;52.262;6.172;2023-07-24T09:06:01;7.32;;;3.40;;
24585;SDS011;12743;52.262;6.172;2023-07-24T09:08:40;6.78;;;4.00;;
24585;SDS011;12743;52.262;6.172;2023-07-24T09:11:08;7.85;;;4.20;;
24585;SDS011;12743;52.262;6.172;2023-07-24T09:13:36;10.33;;;4.60;;
24585;SDS011;12743;52.262;6.172;2023-07-24T09:16:04;10.40;;;4.70;;
24585;SDS011;12743;52.262;6.172;2023-07-24T09:18:38;9.48;;;4.10;;
24585;SDS011;12743;52.262;6.172;2023-07-24T09:21:09;9.88;;;4.93;;
24585;SDS011;12743;52.262;6.172;2023-07-24T09:23:39;8.75;;;4.22;;
24585;SDS011;12743;52.262;6.172;2023-07-24T09:26:07;8.43;;;3.80;;
24585;SDS011;12743;52.262;6.172;2023-07-24T09:28:34;8.60;;;4.13;;
24585;SDS011;12743;52.262;6.172;2023-07-24T09:31:01;8.25;;;4.00;;
24585;SDS011;12743;52.262;6.172;2023-07-24T09:33:39;7.78;;;4.10;;
24585;SDS011;12743;52.262;6.172;2023-07-24T09:36:08;7.13;;;3.67;;
24585;SDS011;12743;52.262;6.172;2023-07-24T09:38:35;7.83;;;4.10;;
24585;SDS011;12743;52.262;6.172;2023-07-24T09:41:03;8.82;;;3.63;;
24585;SDS011;12743;52.262;6.172;2023-07-24T09:43:30;7.65;;;3.63;;
24585;SDS011;12743;52.262;6.172;2023-07-24T09:46:01;9.27;;;4.00;;
24585;SDS011;12743;52.262;6.172;2023-07-24T09:48:30;8.75;;;4.20;;
24585;SDS011;12743;52.262;6.172;2023-07-24T09:51:00;7.53;;;4.20;;
24585;SDS011;12743;52.262;6.172;2023-07-24T09:53:37;8.40;;;3.97;;
24585;SDS011;12743;52.262;6.172;2023-07-24T09:56:06;8.13;;;4.40;;
24585;SDS011;12743;52.262;6.172;2023-07-24T09:58:36;10.40;;;4.47;;
24585;SDS011;12743;52.262;6.172;2023-07-24T10:01:05;9.70;;;4.40;;
24585;SDS011;12743;52.262;6.172;2023-07-24T10:03:49;7.33;;;3.73;;
24585;SDS011;12743;52.262;6.172;2023-07-24T10:06:16;8.30;;;3.45;;
24585;SDS011;12743;52.262;6.172;2023-07-24T10:08:43;6.22;;;3.45;;
24585;SDS011;12743;52.262;6.172;2023-07-24T10:11:11;8.20;;;3.30;;
24585;SDS011;12743;52.262;6.172;2023-07-24T10:13:42;6.47;;;2.97;;
24585;SDS011;12743;52.262;6.172;2023-07-24T10:16:09;8.37;;;3.07;;
24585;SDS011;12743;52.262;6.172;2023-07-24T10:18:43;8.48;;;3.22;;
24585;SDS011;12743;52.262;6.172;2023-07-24T10:21:11;8.70;;;3.40;;
24585;SDS011;12743;52.262;6.172;2023-07-24T10:23:43;6.60;;;3.40;;
24585;SDS011;12743;52.262;6.172;2023-07-24T10:26:10;7.22;;;3.45;;
24585;SDS011;12743;52.262;6.172;2023-07-24T10:28:38;9.33;;;3.40;;
24585;SDS011;12743;52.262;6.172;2023-07-24T10:31:22;7.68;;;3.47;;
24585;SDS011;12743;52.262;6.172;2023-07-24T10:33:50;6.93;;;3.47;;
24585;SDS011;12743;52.262;6.172;2023-07-24T10:36:18;6.82;;;3.28;;
24585;SDS011;12743;52.262;6.172;2023-07-24T10:38:46;8.93;;;3.60;;
24585;SDS011;12743;52.262;6.172;2023-07-24T10:41:13;7.80;;;4.13;;
24585;SDS011;12743;52.262;6.172;2023-07-24T10:43:44;8.43;;;3.85;;
24585;SDS011;12743;52.262;6.172;2023-07-24T10:46:15;7.18;;;3.92;;
24585;SDS011;12743;52.262;6.172;2023-07-24T10:48:43;7.75;;;3.85;;
24585;SDS011;12743;52.262;6.172;2023-07-24T10:51:11;7.45;;;3.72;;
24585;SDS011;12743;52.262;6.172;2023-07-24T10:53:42;10.33;;;4.33;;
24585;SDS011;12743;52.262;6.172;2023-07-24T10:56:10;8.88;;;4.78;;
24585;SDS011;12743;52.262;6.172;2023-07-24T10:58:37;7.32;;;3.83;;
24585;SDS011;12743;52.262;6.172;2023-07-24T11:01:05;9.20;;;4.05;;
24585;SDS011;12743;52.262;6.172;2023-07-24T11:03:35;8.35;;;3.95;;
24585;SDS011;12743;52.262;6.172;2023-07-24T11:06:03;9.17;;;4.57;;
24585;SDS011;12743;52.262;6.172;2023-07-24T11:08:30;6.57;;;3.95;;
24585;SDS011;12743;52.262;6.172;2023-07-24T11:10:58;11.13;;;5.18;;
24585;SDS011;12743;52.262;6.172;2023-07-24T11:13:26;9.45;;;3.30;;
24585;SDS011;12743;52.262;6.172;2023-07-24T11:15:54;7.97;;;3.40;;
24585;SDS011;12743;52.262;6.172;2023-07-24T11:18:21;7.87;;;4.00;;
24585;SDS011;12743;52.262;6.172;2023-07-24T11:20:55;9.38;;;3.63;;
24585;SDS011;12743;52.262;6.172;2023-07-24T11:23:23;7.57;;;3.50;;
24585;SDS011;12743;52.262;6.172;2023-07-24T11:25:51;6.82;;;3.53;;
24585;SDS011;12743;52.262;6.172;2023-07-24T11:28:19;8.63;;;3.65;;
24585;SDS011;12743;52.262;6.172;2023-07-24T11:30:46;7.93;;;3.23;;
24585;SDS011;12743;52.262;6.172;2023-07-24T11:33:14;8.30;;;3.85;;
24585;SDS011;12743;52.262;6.172;2023-07-24T11:35:45;8.13;;;4.07;;
24585;SDS011;12743;52.262;6.172;2023-07-24T11:38:12;7.40;;;3.55;;
24585;SDS011;12743;52.262;6.172;2023-07-24T11:40:40;8.20;;;3.63;;
24585;SDS011;12743;52.262;6.172;2023-07-24T11:45:55;11.98;;;4.47;;
24585;SDS011;12743;52.262;6.172;2023-07-24T11:48:23;7.88;;;3.97;;
24585;SDS011;12743;52.262;6.172;2023-07-24T11:50:54;7.75;;;3.70;;
24585;SDS011;12743;52.262;6.172;2023-07-24T11:53:22;7.68;;;3.90;;
24585;SDS011;12743;52.262;6.172;2023-07-24T11:55:51;5.97;;;3.40;;
24585;SDS011;12743;52.262;6.172;2023-07-24T11:58:19;9.02;;;3.80;;
24585;SDS011;12743;52.262;6.172;2023-07-24T12:00:47;8.77;;;4.00;;
24585;SDS011;12743;52.262;6.172;2023-07-24T12:03:27;8.02;;;4.55;;
24585;SDS011;12743;52.262;6.172;2023-07-24T12:05:55;8.35;;;4.10;;
24585;SDS011;12743;52.262;6.172;2023-07-24T12:08:32;7.80;;;4.57;;
24585;SDS011;12743;52.262;6.172;2023-07-24T12:11:00;7.20;;;4.30;;
24585;SDS011;12743;52.262;6.172;2023-07-24T12:13:28;8.63;;;4.63;;
24585;SDS011;12743;52.262;6.172;2023-07-24T12:15:58;9.40;;;4.72;;
24585;SDS011;12743;52.262;6.172;2023-07-24T12:18:25;9.30;;;4.65;;
24585;SDS011;12743;52.262;6.172;2023-07-24T12:20:52;8.27;;;4.40;;
24585;SDS011;12743;52.262;6.172;2023-07-24T12:23:19;10.35;;;4.75;;
24585;SDS011;12743;52.262;6.172;2023-07-24T12:25:45;11.52;;;4.80;;
24585;SDS011;12743;52.262;6.172;2023-07-24T12:28:12;10.77;;;4.85;;
24585;SDS011;12743;52.262;6.172;2023-07-24T12:30:39;8.85;;;4.15;;
24585;SDS011;12743;52.262;6.172;2023-07-24T12:33:06;7.17;;;3.83;;
24585;SDS011;12743;52.262;6.172;2023-07-24T12:35:32;8.82;;;4.43;;
24585;SDS011;12743;52.262;6.172;2023-07-24T12:37:59;8.30;;;4.32;;
24585;SDS011;12743;52.262;6.172;2023-07-24T12:40:26;7.35;;;4.15;;
24585;SDS011;12743;52.262;6.172;2023-07-24T12:42:53;10.23;;;4.25;;
24585;SDS011;12743;52.262;6.172;2023-07-24T12:45:20;7.37;;;4.20;;
24585;SDS011;12743;52.262;6.172;2023-07-24T12:47:46;10.32;;;5.03;;
24585;SDS011;12743;52.262;6.172;2023-07-24T12:50:13;8.20;;;4.80;;
24585;SDS011;12743;52.262;6.172;2023-07-24T12:52:39;7.68;;;4.50;;
24585;SDS011;12743;52.262;6.172;2023-07-24T12:55:07;9.88;;;4.40;;
24585;SDS011;12743;52.262;6.172;2023-07-24T12:57:34;9.73;;;4.80;;
24585;SDS011;12743;52.262;6.172;2023-07-24T13:00:02;9.65;;;4.60;;
24585;SDS011;12743;52.262;6.172;2023-07-24T13:02:29;9.63;;;4.90;;
24585;SDS011;12743;52.262;6.172;2023-07-24T13:04:56;7.45;;;4.70;;
24585;SDS011;12743;52.262;6.172;2023-07-24T13:07:22;8.27;;;4.50;;
24585;SDS011;12743;52.262;6.172;2023-07-24T13:09:49;8.57;;;4.93;;
24585;SDS011;12743;52.262;6.172;2023-07-24T13:12:16;10.45;;;4.60;;
24585;SDS011;12743;52.262;6.172;2023-07-24T13:14:43;8.88;;;4.70;;
24585;SDS011;12743;52.262;6.172;2023-07-24T13:17:09;7.38;;;3.67;;
24585;SDS011;12743;52.262;6.172;2023-07-24T13:19:36;8.57;;;3.88;;
24585;SDS011;12743;52.262;6.172;2023-07-24T13:22:03;6.87;;;3.70;;
24585;SDS011;12743;52.262;6.172;2023-07-24T13:24:30;7.45;;;3.80;;
24585;SDS011;12743;52.262;6.172;2023-07-24T13:26:57;7.90;;;3.90;;
24585;SDS011;12743;52.262;6.172;2023-07-24T13:29:23;7.68;;;3.92;;
24585;SDS011;12743;52.262;6.172;2023-07-24T13:31:52;6.78;;;4.72;;
24585;SDS011;12743;52.262;6.172;2023-07-24T13:34:18;8.80;;;4.60;;
24585;SDS011;12743;52.262;6.172;2023-07-24T13:36:46;9.90;;;5.22;;
24585;SDS011;12743;52.262;6.172;2023-07-24T13:39:13;9.68;;;5.32;;
24585;SDS011;12743;52.262;6.172;2023-07-24T13:41:40;12.27;;;6.00;;
24585;SDS011;12743;52.262;6.172;2023-07-24T13:44:08;9.30;;;5.65;;
24585;SDS011;12743;52.262;6.172;2023-07-24T13:46:34;8.10;;;4.90;;
24585;SDS011;12743;52.262;6.172;2023-07-24T13:49:05;9.98;;;6.05;;
24585;SDS011;12743;52.262;6.172;2023-07-24T13:51:32;13.15;;;6.97;;
24585;SDS011;12743;52.262;6.172;2023-07-24T13:53:59;10.10;;;6.18;;
24585;SDS011;12743;52.262;6.172;2023-07-24T13:56:29;9.55;;;5.55;;
24585;SDS011;12743;52.262;6.172;2023-07-24T13:59:00;10.10;;;5.40;;
24585;SDS011;12743;52.262;6.172;2023-07-24T14:01:27;8.60;;;4.63;;
24585;SDS011;12743;52.262;6.172;2023-07-24T14:03:56;6.80;;;3.60;;
24585;SDS011;12743;52.262;6.172;2023-07-24T14:06:23;4.82;;;2.22;;
24585;SDS011;12743;52.262;6.172;2023-07-24T14:08:50;6.20;;;1.98;;
24585;SDS011;12743;52.262;6.172;2023-07-24T14:11:16;7.87;;;2.77;;
24585;SDS011;12743;52.262;6.172;2023-07-24T14:13:46;7.00;;;2.75;;
24585;SDS011;12743;52.262;6.172;2023-07-24T14:16:13;19.02;;;5.20;;
24585;SDS011;12743;52.262;6.172;2023-07-24T14:18:40;21.38;;;5.05;;
24585;SDS011;12743;52.262;6.172;2023-07-24T14:21:14;14.35;;;4.35;;
24585;SDS011;12743;52.262;6.172;2023-07-24T14:23:40;14.93;;;4.57;;
24585;SDS011;12743;52.262;6.172;2023-07-24T14:26:07;14.15;;;4.82;;
24585;SDS011;12743;52.262;6.172;2023-07-24T14:28:34;12.20;;;6.05;;
24585;SDS011;12743;52.262;6.172;2023-07-24T14:31:03;14.98;;;6.20;;
24585;SDS011;12743;52.262;6.172;2023-07-24T14:33:30;11.63;;;6.13;;
24585;SDS011;12743;52.262;6.172;2023-07-24T14:35:57;17.30;;;7.77;;
24585;SDS011;12743;52.262;6.172;2023-07-24T14:38:23;15.00;;;7.57;;
24585;SDS011;12743;52.262;6.172;2023-07-24T14:40:50;14.30;;;8.10;;
24585;SDS011;12743;52.262;6.172;2023-07-24T14:43:17;15.20;;;8.45;;
24585;SDS011;12743;52.262;6.172;2023-07-24T14:45:43;12.48;;;7.85;;
24585;SDS011;12743;52.262;6.172;2023-07-24T14:48:10;12.40;;;7.90;;
24585;SDS011;12743;52.262;6.172;2023-07-24T14:50:39;14.57;;;8.50;;